Tell, Pennsylvania
Current Conditions -  °F | °C
As of 7:53 AM on Friday 24 Oct 2014 (Local Time) from KAOO Reporting Station
Scattered Clouds Scattered Clouds  
Wind Chill: 41°   Ceiling: Unl
Heat Index: 45°   Visibility: 10mi
Dew Point: 40°   Wind: 7mph
Humidity: 82%   Direction: 300°WNW
Pressure: 30.03"   Gusts: NA
Location:  40.2561°N, 77.7747°W
Report Text: KAOO 241153Z AUTO 30006KT 10SM SCT020 07/04 A3003 RMK AO2 SLP171 T00720044 10094 20072 50000
Loading
Personal Weather Stations






























Interactive Weather Map
Tropical Storm Tracking
New forecast layout! Learn more

10-Day Weather Forecast

Advertisements
Track Severe Weather on mobile